Date   
Re: UNID 000016100 update

Rosario
 

An excellent investigative activity Rich!

Rosario

Re: UNID 000016100 update

Richard Ware
 

On Fri, 11 Oct 2019 at 10:37, peter via Groups.Io
<peterconway.ndb=talktalk.net@groups.io> wrote:

Nice detective work Rich..!
---------------------

This is the area of DSC logging that I enjoy a lot more than simply
crossing off stations heard or chasing DX on two. Going behind the
scenes, as it were. The nuts-and-bolts of it all
I suppose it will all change when YADDNet closes (and I presume it
will) as we won't have access to its excellent search facilities and
won't be able to see what other uploaders have been hearing.
Unless of course, those who currently upload to YADDNet were to post
their logs here. The group currently has 337 subscribers. The number
of active ones can't be much more than a dozen or so.

A pity

Rich

Re: UNID 000016100 update

peter
 

On 11/10/2019 09:09, Richard Ware wrote:
Our UNID MMSI number 00016100 is slowly chugging its way Southwestwards
across the Black Sea, having cleared the sea of Azov (see attachments). The
position at latitude 44-25N was at 0505z yesterday and the one at latitude
43-50N was at 1553z yesterday

(Screengrabs credit Google Maps)

Rich
Nice detective work Rich..!

Peter

UNID 000016100 update

Richard Ware
 

Hello folks

Our UNID MMSI number 00016100 is slowly chugging its way Southwestwards across the Black Sea, having cleared the sea of Azov (see attachments). The position at latitude 44-25N was at 0505z yesterday and the one at latitude 43-50N was at 1553z yesterday

(Screengrabs credit Google Maps)

Rich

log 09/10

Vincent LECLER
 

Hi All,


20191009 1342 2187.5 002050480 Ostende Radio, Belgium
20191009 1906 2187.5 002111240 Bremen Radio, Germany
20191009 0017 2187.5 002191000 Lyngby Radio, Denmark
20191009 0002 2187.5 002241022 Coruna Radio, Spain
20191009 0133 2187.5 002241024 Valencia Radio, Spain
20191009 0035 2187.5 002241026 Las Palmas Radio, Spain
20191009 0603 2187.5 002275000 CROSS Etel, France
20191009 0841 2187.5 002275100 CROSS Gris Nez, France
20191009 0152 2187.5 002275400 CROSS La Garde, France
20191009 0057 2187.5 002320001 Shetland Coastguard, United Kingdom
20191009 0127 2187.5 002320004 Aberdeen Coastguard, United Kingdom
20191009 0127 2187.5 002320007 Humber Coastguard, United Kingdom
20191009 0808 2187.5 002320010 Dover Coastguard, United Kingdom
20191009 1149 2187.5 002320011 Solent Coastguard, United Kingdom
20191009 0154 2187.5 002320014 Falmouth Coastguard, United Kingdom
20191009 0333 2187.5 002320017 Milford Haven Coastguard, United Kingdom
20191009 0848 2187.5 002320021 Belfast Coastguard, United Kingdom
20191009 1441 2187.5 002320024 Stornoway Coastguard, United Kingdom
20191009 0032 2187.5 002371000 Olympia Radio, Greece
20191009 0015 2187.5 002442000 Netherlands CG Radio, Netherlands
20191009 0815 2187.5 002470002 Palermo Radio, Italy
20191009 0506 2187.5 002470119 Ancona Radio, Italy
20191009 0436 2187.5 002470120 Augusta Radio, Italy
20191009 2100 2187.5 002470124 Crotone Radio, Italy
20191009 0648 2187.5 002470125 Genova Radio, Italy
20191009 1647 2187.5 002470133 Porto Torres Radio, Italy
20191009 0850 2187.5 002500100 Malin Head Radio, Ireland
20191009 1625 2187.5 002500200 Valentia Radio, Ireland
20191009 2004 2187.5 002510100 Reykjavik Radio, Iceland
20191009 0309 2187.5 002570000 Public Correspondence, Norway
20191009 1731 2187.5 002610210 Witowo Radio, Poland
20191009 2109 2187.5 002711000 Istanbul Radio, Turkey
20191009 1920 2187.5 002734411 Novorossiysk Radio, Russia
20191009 2020 2187.5 002734419 Astrakhan Radio, Russia
20191009 1704 2187.5 002734487 Taganrog Radio, Russia
20191009 2227 2187.5 004280001 Haifa Radio, Israel

4207.5 :
20191009 0045 4207.5 000016100 UNID, UNK
20191009 0400 4207.5 002070810 Varna Radio, Bulgaria
20191009 0033 4207.5 002241022 Coruna Radio, Spain
20191009 0044 4207.5 002371000 Olympia Radio, Greece
20191009 1528 4207.5 002711000 Istanbul Radio, Turkey
20191009 0120 4207.5 002733700 Saint Petersburg Radio, Russia
20191009 0443 4207.5 003669991 Boston, USA
20191009 0014 4207.5 003669995 Chesapeake, USA
20191009 0337 4207.5 003669997 Miami, USA
20191009 0414 4207.5 003669998 New Orleans, USA
20191009 1640 4207.5 004122100 Shanghai Radio, China
-- 
73's
Vincent Lecler F5OIH
JN06CI
REF43551
EPC:23954/30MDG:7083/DMC:7677/FeldHell:5248/BDM:4704/ERC:2359
QSL via Buro,EQSL and LOTW

Re: REU DSC logs

Richard Ware
 

On Thu, 10 Oct 2019 at 16:33, peter via Groups.Io
<peterconway.ndb=talktalk.net@groups.io> wrote:

Hi all,

Recent DSC logs. Corsen seems to have reverted to 0501/1701 calls.
----------------------------

Peter/folks

That's what I thought as well, but today it looks as if things are
almost back to normal, with 5 'Corsen-to-ship' ACKs logged. I'm sure
he missed a few though.
I see we were also treated to TWO self-tests at 0501Z and 1701Z
instead of just the single one each time

Rich

REU DSC logs

peter
 

Hi all,

Recent DSC logs.  Corsen seems to have reverted to 0501/1701 calls. 16 Mhz showing more life.

Session Report for Peter Conway, G3UFI
Listening Location: Hastings UK, JO00gv (50°52'54"N   000°34'40"E)
Report Created On Oct 10, 2019 at 16:26 UTC
Receiver(s): WiNRADiO 313i/R1000/RSP1A/Spyverter
Antenna(s): ALA100M/ALA1530 Loops/Dipoles/Discone
Software: Multipsk 4.33 + other software
Report Sorted by Freq in Ascending order, Frequency Range 100.00 - 156525.00 kHz
--------------------------------------------------------------------------------------------------
YYYY-MM-DD UTC    kHz     Call       km    New Location
--------------------------------------------------------------------------------------------------
2019-10-09 17:32  2177    002241024  1350      Valencia Radio, ESP
2019-10-09 22:39  2177    002570500  1220      Floroe Radio, NOR
2019-10-09 22:07  2187.5  002470120  1907      Augusta Radio, ITA
2019-10-09 23:34  2187.5  002470128  1749      Mazara del Vallo Radio, ITA
2019-10-09 06:06  2187.5  002470119  1263      Ancona Radio, ITA
2019-10-09 21:06  2187.5  002470125  952       Genova Radio, ITA
2019-10-09 01:36  2187.5  002734414  2748      Arkhangelsk Radio, RUS
2019-10-09 01:53  2187.5  002734411  2831      Novorossiysk radio, RUS
2019-10-09 00:12  2187.5  002711000  2425      Istanbul Radio, TUR
2019-10-09 00:18  2187.5  002653000  1058      Goteborg Radio, SWE
2019-10-09 00:26  2187.5  002442000  368       Den Helder CG R, HOL
2019-10-09 21:01  2187.5  002470002  1738      Palermo Radio, ITA
2019-10-09 00:57  2187.5  002320001  1036      Shetland Radio, SHE
2019-10-09 03:33  2187.5  002320017  409       Milford Haven Radio, WLS
2019-10-09 00:35  2187.5  002320018  447       Holyhead Radio, WLS
2019-10-09 17:01  2187.5  002275300  474       CROSS Corsen, FRA
2019-10-09 23:12  2187.5  002500200  766       Valentia Radio, IRL
2019-10-09 22:49  2187.5  002240993  1163      Finisterre Radio, ESP
2019-10-09 22:28  2187.5  004280001  3438      Haifa Radio, ISR
2019-10-09 00:08  2187.5  002241022  1079      Coruna Radio, ESP
2019-10-09 05:05  2187.5  002275420  1176      Aspretto, COR
2019-10-09 21:48  2187.5  002301000  1576      Mariehamn Radio, FIN
2019-10-09 23:53  2187.5  002712000  2906      Samsun Radio, TUR
2019-10-09 20:08  2187.5  002734487  2796      Taganrog Radio, RUS
2019-10-09 00:17  2187.5  002770330  1469      Klaipeda RCC, LTU
2019-10-09 00:12  4207.5  002241022  1079      Coruna Radio, ESP
2019-10-09 20:13  4207.5  002070810  2224      Varna Radio, BUL
2019-10-09 00:44  4207.5  002371000  2209      Olympia Radio, GRC
2019-10-09 17:37  4207.5  002711000  2223      Istanbul Radio, TUR
2019-10-09 05:40  4207.5  002733700  2098      Saint Petersburg Radio, RUS
2019-10-09 04:05  4207.5  003669991  5346      Boston Radio, MA, USA
2019-10-09 03:09  4207.5  003669995  6057      Portsmouth Radio, VA, USA
2019-10-09 03:01  4207.5  003669997  7214      Miami Radio, FL, USA
2019-10-09 04:45  6312    002371000  2209      Olympia Radio, GRC
2019-10-09 05:40  6312    002711000  2223      Istanbul Radio, TUR
2019-10-09 23:08  6312    003669991  5346      Boston Radio, MA, USA
2019-10-09 05:56  6312    003669997  7214      Miami Radio, FL, USA
2019-10-09 16:37  6312    004122100  9224      Shanghai Radio, CHN
2019-10-09 10:00  8414.5  002070810  2224      Varna Radio, BUL
2019-10-09 01:23  8414.5  000016100            XUU
2019-10-09 10:07  8414.5  002371000  2209      Olympia Radio, GRC
2019-10-09 23:09  8414.5  003669991  5346      Boston Radio, MA, USA
2019-10-09 23:07  8414.5  003669995  6057      Portsmouth Radio, VA, USA
2019-10-09 23:18  8414.5  003669997  7214      Miami Radio, FL, USA
2019-10-09 23:25  8414.5  003669998  7512      New Orleans Radio, LA, USA
2019-10-09 15:08  8414.5  004122100  9224      Shanghai Radio, CHN
2019-10-09 18:27  8414.5  004162019  9792      Chilung Keelung Radio, TWN
2019-10-09 15:41  8414.5  005030001  14978     Charleville/Wilun R, AT, AUS
2019-10-09 00:02  8414.5  005671000  9529      Bangkok Radio, THA
2019-10-09 02:01  8414.5  006010001  9567      Cape Town Radio, AFS
2019-10-09 03:33  8414.5  006221111  3253      Alexandria Radio, EGY
2019-10-09 21:38  8414.5  006452700  9653      Mauritius Radio, MAU
2019-10-09 10:14  8414.5  002241022  1079      Coruna Radio, ESP
2019-10-09 17:46  12577   007100003  8281      Manaus Radio, BRA
2019-10-09 14:35  12577   003669991  5346      Boston Radio, MA, USA
2019-10-09 08:41  12577   004122100  9224      Shanghai Radio, CHN
2019-10-09 14:03  12577   005030001  14978     Charleville/Wilun R, AT, AUS
2019-10-09 14:27  12577   005743030  10241     Ho Chi Minh Ville Radio, VTN
2019-10-09 07:37  12577   006221111  3253      Alexandria Radio, EGY
2019-10-09 17:02  16804.5 007100003  8278      Manaus Radio, BRA
2019-10-09 13:39  16804.5 002371000  2209      Olympia Radio, GRC
2019-10-09 08:28  16804.5 002711000  2223      Istanbul Radio, TUR
2019-10-09 14:24  16804.5 003669991  5346      Boston Radio, MA, USA
2019-10-09 14:43  16804.5 003669997  7214      Miami Radio, FL, USA
2019-10-09 14:04  16804.5 005743030  10241     Ho Chi Minh Ville Radio, VTN
2019-10-09 11:36  156525  002320014  406       Falmouth Radio, ENG
2019-10-09 10:02  156525  002320018  448       Holyhead Radio, WLS
2019-10-09 16:19  156525  002275200  219       CROSS Jobourg, FRA
2019-10-09 06:45  156525  002288217  124       Fecamp Signal station, FRA
--------------------------------------------------------------------------------------------------
Output Generated By WWSU 6.4 (2013, Alex Wiecek - VE3GOP, http://www.ve3gop.com)
69 stations logged during this Session (0 new)
Total number of DSC stations logged   -   741

73,

Peter      g3ufi

REU - DSC Logs from Ariano Irpino, South Italy - logs of 2019 10 09

Rosario
 

Report from      :Rosario Palermo IZ8294SWL

QTH              :Ariano Irpino, AV, Italy

Locators         :41°08'01.8"N 15°04'54.3"E

Receiever(s)    :SDRplay RSP1A / JRC NDR 525 /R1000

Antenna(s)       :genuine PA0RDT MiniWhip at 4m / dipole 30 mt / End Fed 120 m



Hi all,
DSC logs of 2019 10 09



YYYYMMDD HHMM kHz MMSI Station ID, Country ==========================================================
2187.5 : 20191009 1900 2187.5 002070810 Varna Radio, Bulgaria 20191009 0030 2187.5 002111240 Bremen Radio, Germany 20191009 0016 2187.5 002191000 Lyngby Radio, Denmark 20191009 2205 2187.5 002241002 Almeria Radio, Spain 20191009 0008 2187.5 002241022 Coruna Radio, Spain 20191009 0133 2187.5 002241024 Valencia Radio, Spain 20191009 0035 2187.5 002241026 Las Palmas Radio, Spain 20191009 0122 2187.5 002275200 CROSS Jobourg, France 20191009 0152 2187.5 002275400 CROSS La Garde, France 20191009 2147 2187.5 002301000 Mariehamn Radio, Finland 20191009 2238 2187.5 002320001 Shetland Coastguard, United Kingdom 20191009 0127 2187.5 002320004 Aberdeen Coastguard, United Kingdom 20191009 2306 2187.5 002320007 Humber Coastguard, United Kingdom 20191009 0032 2187.5 002371000 Olympia Radio, Greece 20191009 0015 2187.5 002442000 Netherlands CG Radio, Netherlands 20191009 2101 2187.5 002470002 Palermo Radio, Italy 20191009 2207 2187.5 002470120 Augusta Radio, Italy 20191009 0259 2187.5 002470124 Crotone Radio, Italy 20191009 2106 2187.5 002470125 Genova Radio, Italy 20191009 0432 2187.5 002470128 Mazara del Vallo Radio, Italy 20191009 0136 2187.5 002570000 Public Correspondence, Norway 20191009 0006 2187.5 002570100 Tjome Radio, Norway 20191009 0030 2187.5 002570300 Rogaland Radio, Norway 20191009 1917 2187.5 002610210 Witowo Radio, Poland 20191009 2256 2187.5 002652000 Stockholm Radio, Sweden 20191009 0126 2187.5 002653000 Goteborg Radio, Sweden 20191009 0012 2187.5 002711000 Istanbul Radio, Turkey 20191009 0251 2187.5 002723660 Odessa Radio, Ukraine 20191009 2110 2187.5 002734411 Novorossiysk Radio, Russia 20191009 2020 2187.5 002734419 Astrakhan Radio, Russia 20191009 2008 2187.5 002734487 Taganrog Radio, Russia 20191009 0017 2187.5 002770330 Klaipeda Rescue Centre, Lithuania 4207.5 : 20191009 2037 4207.5 002191000 Lyngby Radio, Denmark 20191009 0515 4207.5 002241022 Coruna Radio, Spain 20191009 0451 4207.5 002371000 Olympia Radio, Greece 20191009 0550 4207.5 003669991 Boston, USA 20191009 0548 4207.5 003669995 Chesapeake, USA 20191009 0556 4207.5 003669997 Miami, USA 8414.5 : 20191009 1106 8414.5 002070810 Varna Radio, Bulgaria 20191009 0920 8414.5 002091000 Cyprus Radio, Cyprus 20191009 0917 8414.5 002241022 Coruna Radio, Spain 20191009 0910 8414.5 002371000 Olympia Radio, Greece 20191009 0909 8414.5 002711000 Istanbul Radio, Turkey 20191009 1600 8414.5 004122100 Shanghai Radio, China 20191009 1643 8414.5 005671000 Bangkok Radio, Thailand 20191009 1242 8414.5 006221111 Alexandria Radio, Egypt 12577.0 : 20191009 1035 12577.0 002241022 Coruna Radio, Spain 20191009 1337 12577.0 002371000 Olympia Radio, Greece 20191009 1049 12577.0 002711000 Istanbul Radio, Turkey 20191009 1045 12577.0 004231000 Baku Radio, Azerbaijan 20191009 1422 12577.0 006221111 Alexandria Radio, Egypt

73,Rosario

UNID 000016100

Richard Ware
 

Hello folks

It seems that everyone apart from me has been logging this UNID lately
on one frequency or another

A check of the YADDNet server shows that on 8th at 2133z it called
Olympia Radio (on 4208.0 no less) with a J3E/TP message. Its position
shows as 45-28N, 36-38E, which puts it (whatever 'IT' is) in the Sea
of Azov, near Kerch. See attachment
Is it time to play 'Chennai/Medi Kobe' again ?

Rich

log 08/10

Vincent LECLER
 

Hi All,

20191008 2141 2187.5 000016100 UNID, UNK
20191008 0504 2187.5 002050480 Ostende Radio, Belgium
20191008 1804 2187.5 002111240 Bremen Radio, Germany
20191008 0527 2187.5 002191000 Lyngby Radio, Denmark
20191008 0737 2187.5 002240993 Finisterre MRCC, Spain
20191008 0446 2187.5 002241022 Coruna Radio, Spain
20191008 0700 2187.5 002241024 Valencia Radio, Spain
20191008 0631 2187.5 002241026 Las Palmas Radio, Spain
20191008 0603 2187.5 002275000 CROSS Etel, France
20191008 0602 2187.5 002275100 CROSS Gris Nez, France
20191008 1654 2187.5 002275200 CROSS Jobourg, France
20191008 1702 2187.5 002275400 CROSS La Garde, France
20191008 1701 2187.5 002320004 Aberdeen Coastguard, United Kingdom
20191008 0902 2187.5 002320007 Humber Coastguard, United Kingdom
20191008 0710 2187.5 002320010 Dover Coastguard, United Kingdom
20191008 1040 2187.5 002320014 Falmouth Coastguard, United Kingdom
20191008 1841 2187.5 002320017 Milford Haven Coastguard, United Kingdom
20191008 1644 2187.5 002320018 Holyhead Coastguard, United Kingdom
20191008 2357 2187.5 002320021 Belfast Coastguard, United Kingdom
20191008 0445 2187.5 002371000 Olympia Radio, Greece
20191008 0724 2187.5 002442000 Netherlands CG Radio, Netherlands
20191008 2106 2187.5 002470002 Palermo Radio, Italy
20191008 2051 2187.5 002470120 Augusta Radio, Italy
20191008 0953 2187.5 002500200 Valentia Radio, Ireland
20191008 0448 2187.5 002570000 Public Correspondence, Norway
20191008 1010 2187.5 002570300 Rogaland Radio, Norway
20191008 2304 2187.5 002570700 Bodoe Radio, Norway
20191008 1731 2187.5 002610210 Witowo Radio, Poland
20191008 0753 2187.5 002630100 MRCC Lisboa, Portugal
20191008 1754 2187.5 002652000 Stockholm Radio, Sweden
20191008 1840 2187.5 002711000 Istanbul Radio, Turkey
20191008 1911 2187.5 002712000 Samsun Radio, Turkey
20191008 1818 2187.5 002713000 Antalya Radio, Turkey
20191008 1704 2187.5 002734411 Novorossiysk Radio, Russia
20191008 1850 2187.5 002734414 Arkhangelsk Radio, Russia
20191008 1703 2187.5 002734446 Taman Radio, Russia
20191008 1706 2187.5 002734487 Taganrog Radio, Russia
20191008 1816 2187.5 005250000 Jakarta Radio, Indonesia
20191008 1703 2187.5 006052110 Alger Radio, Algeria
20191008 2208 2187.5 006221113 Port Said Radio, Egypt

4207.5 :
20191008 1803 4207.5 000016100 UNID, UNK
20191008 0251 4207.5 002070810 Varna Radio, Bulgaria
20191008 0121 4207.5 002241022 Coruna Radio, Spain
20191008 0447 4207.5 002371000 Olympia Radio, Greece
20191008 0404 4207.5 002711000 Istanbul Radio, Turkey
20191008 0450 4207.5 003669991 Boston, USA
20191008 0326 4207.5 003669995 Chesapeake, USA
20191008 0600 4207.5 003669997 Miami, USA
20191008 1933 4207.5 004122100 Shanghai Radio, China
20191008 2042 4207.5 005030001 RCC Australia, Australia
-- 
73's
Vincent Lecler F5OIH
JN06CI
REF43551
EPC:23954/30MDG:7083/DMC:7677/FeldHell:5248/BDM:4704/ERC:2359
QSL via Buro,EQSL and LOTW

REU DSC logs

peter
 

Hi all,

Recent DSC logs.  As Jay mentioned UNID 000016100 was noted here on 4 Mhz. 12/16 Mhz rather poor

Session Report for Peter Conway, G3UFI
Listening Location: Hastings UK, JO00gv (50°52'54"N   000°34'40"E)
Report Created On Oct 09, 2019 at 15:34 UTC
Receiver(s): WiNRADiO 313i/R1000/RSP1A/Spyverter
Antenna(s): ALA100M/ALA1530 Loops/Dipoles/Discone
Software: Multipsk 4.33 + other software
Report Sorted by Freq in Ascending order, Frequency Range 100.00 - 156525.00 kHz
--------------------------------------------------------------------------------------------------
YYYY-MM-DD UTC    kHz     Call       km    New Location
--------------------------------------------------------------------------------------------------
2019-10-08 10:30  2187.5  002320019            UK Coastguard, ENG
2019-10-08 04:30  2187.5  002470120  1907      Augusta Radio, ITA
2019-10-08 19:37  2187.5  002734414  2748      Arkhangelsk Radio, RUS
2019-10-08 00:06  2187.5  002734411  2831      Novorossiysk radio, RUS
2019-10-08 02:05  2187.5  002733700  2042      Saint Petersburg Radio, RUS
2019-10-08 05:58  2187.5  002510100  1967      Reykjavik Radio, ISL
2019-10-08 05:31  2187.5  002610210  1146      Witowo Radio, POL
2019-10-08 00:09  2187.5  002570300  921       Rogaland Radio, NOR
2019-10-08 23:04  2187.5  002570700  1974      Bodoe Radio, NOR
2019-10-08 02:18  2187.5  002320014  406       Falmouth Radio, ENG
2019-10-08 00:50  2187.5  002320017  409       Milford Haven Radio, WLS
2019-10-08 17:01  2187.5  002275300  474       CROSS Corsen, FRA
2019-10-08 22:10  2187.5  002240994  1723      Tarifa Radio, ESP
2019-10-08 03:42  2187.5  002630100  1562      Lisboa Radio, POR
2019-10-08 19:38  2187.5  002241026  2909      Las Palmas Radio, CNR
2019-10-08 23:03  2187.5  002570800  2672      Vardo Radio, NOR
2019-10-08 21:21  2187.5  002734487  2796      Taganrog Radio, RUS
2019-10-08 19:06  2187.5  002760100  1784      Tallinn North radio, EST
2019-10-08 18:04  4207.5  000016100        Y   UNID, XUU
2019-10-08 21:04  4207.5  002711000  2223      Istanbul Radio, TUR
2019-10-08 04:50  4207.5  003669991  5346      Boston Radio, MA, USA
2019-10-08 11:05  8414.5  002070810  2224      Varna Radio, BUL
2019-10-08 18:02  8414.5  000016100            XUU
2019-10-08 14:03  8414.5  002091000  3149      Cyprus Radio, CYP
2019-10-08 10:02  8414.5  002371000  2209      Olympia Radio, GRC
2019-10-08 10:03  8414.5  002711000  2223      Istanbul Radio, TUR
2019-10-08 18:25  8414.5  003160023  4150      Iqaluit Radio, NU, CAN
2019-10-08 18:47  8414.5  003669991  5346      Boston Radio, MA, USA
2019-10-08 18:37  8414.5  003669995  6057      Portsmouth Radio, VA, USA
2019-10-08 15:09  8414.5  004122100  9224      Shanghai Radio, CHN
2019-10-08 15:56  8414.5  005030001  14978     Charleville/Wilun R, AT, AUS
2019-10-08 00:01  8414.5  005671000  9529      Bangkok Radio, THA
2019-10-08 19:36  8414.5  005743030  10241     Ho Chi Minh Ville Radio, VTN
2019-10-08 00:15  8414.5  006010001  9567      Cape Town Radio, AFS
2019-10-08 04:47  8414.5  006221111  3253      Alexandria Radio, EGY
2019-10-08 16:13  8414.5  004225500  4085      Anzali Radio, IRN
2019-10-08 10:12  8414.5  002241022  1079      Coruna Radio, ESP
2019-10-08 09:05  12577   219015591  919       XPE3307 Pandrup Test, DNK
2019-10-08 10:11  12577   003669991  5346      Boston Radio, MA, USA
2019-10-08 08:56  12577   004122100  9224      Shanghai Radio, CHN
2019-10-08 11:38  12577   006221111  3253      Alexandria Radio, EGY
2019-10-08 09:10  16804.5 002371000  2209      Olympia Radio, GRC
2019-10-08 07:19  16804.5 002711000  2223      Istanbul Radio, TUR
2019-10-08 17:01  16804.5 007100001  9289      Rio de Janeiro Radio, BRA
2019-10-08 03:52  156525  002320010  59        Dover Radio, ENG
2019-10-08 11:43  156525  002275200  219       CROSS Jobourg, FRA
2019-10-08 06:00  156525  002275100  70        CROSS Gris Nez, FRA
2019-10-08 03:53  156525  002320011  45        Solent Radio, ENG
--------------------------------------------------------------------------------------------------
Output Generated By WWSU 6.4 (2013, Alex Wiecek - VE3GOP, http://www.ve3gop.com)
48 stations logged during this Session (1 new)
Total number of DSC stations logged   -   740

REU - DSC Logs from Ariano Irpino, South Italy - logs of 2019 10 08

Rosario
 


Report from      :Rosario Palermo IZ8294SWL

QTH              :Ariano Irpino, AV, Italy

Locators         :41°08'01.8"N 15°04'54.3"E

Receiever(s)    :SDRplay RSP1A / JRC NDR 525 /R1000

Antenna(s)       :genuine PA0RDT MiniWhip at 4m / dipole 30 mt / End Fed 120 m



Hi all,
DSC logs of 2019 10 08

noticed as Jay on 2187.5 000016100 UNID and on 8MHz


YYYYMMDD HHMM kHz MMSI Station ID, Country ========================================================== 2187.5 : 20191008 2141 2187.5 000016100 UNID, UNK 20191008 1918 2187.5 002050480 Ostende Radio, Belgium 20191008 1950 2187.5 002070810 Varna Radio, Bulgaria 20191008 0207 2187.5 002191000 Lyngby Radio, Denmark 20191008 2210 2187.5 002240994 Tarifa MRCC, Spain 20191008 0037 2187.5 002241022 Coruna Radio, Spain 20191008 0137 2187.5 002241024 Valencia Radio, Spain 20191008 1911 2187.5 002241026 Las Palmas Radio, Spain 20191008 1921 2187.5 002275200 CROSS Jobourg, France 20191008 0204 2187.5 002320007 Humber Coastguard, United Kingdom 20191008 2053 2187.5 002320010 Dover Coastguard, United Kingdom 20191008 0218 2187.5 002320014 Falmouth Coastguard, United Kingdom 20191008 0031 2187.5 002371000 Olympia Radio, Greece 20191008 0052 2187.5 002442000 Netherlands CG Radio, Netherlands 20191008 2046 2187.5 002470002 Palermo Radio, Italy 20191008 0058 2187.5 002470120 Augusta Radio, Italy 20191008 2122 2187.5 002470124 Crotone Radio, Italy 20191008 2102 2187.5 002470128 Mazara del Vallo Radio, Italy 20191008 2305 2187.5 002510100 Reykjavik Radio, Iceland 20191008 2150 2187.5 002570000 Public Correspondence, Norway 20191008 2109 2187.5 002570300 Rogaland Radio, Norway 20191008 2304 2187.5 002570700 Bodoe Radio, Norway 20191008 1933 2187.5 002610210 Witowo Radio, Poland 20191008 1840 2187.5 002711000 Istanbul Radio, Turkey 20191008 2148 2187.5 002712000 Samsun Radio, Turkey 20191008 2120 2187.5 002734411 Novorossiysk Radio, Russia 20191008 2121 2187.5 002734487 Taganrog Radio, Russia 20191008 2137 2187.5 002761000 Tallinn MRCC, Estonia 4207.5 : 20191008 0706 4207.5 002241022 Coruna Radio, Spain 20191008 0615 4207.5 002371000 Olympia Radio, Greece 20191008 0555 4207.5 002711000 Istanbul Radio, Turkey 20191008 0543 4207.5 003669997 Miami, USA 6312.0 : 20191008 1243 6312.0 002070810 Varna Radio, Bulgaria 20191008 1140 6312.0 002371000 Olympia Radio, Greece 20191008 1218 6312.0 002711000 Istanbul Radio, Turkey 20191008 1625 6312.0 004122100 Shanghai Radio, China 8414.5 : 20191008 1803 8414.5 000016100 UNID, UNK 20191008 1241 8414.5 002070810 Varna Radio, Bulgaria 20191008 1206 8414.5 002241022 Coruna Radio, Spain 20191008 1213 8414.5 002371000 Olympia Radio, Greece 20191008 1247 8414.5 002711000 Istanbul Radio, Turkey 20191008 1642 8414.5 004122100 Shanghai Radio, China 20191008 1632 8414.5 005030001 RCC Australia, Australia 20191008 1646 8414.5 005671000 Bangkok Radio, Thailand 20191008 1628 8414.5 005741040 Hai Phong Radio, Vietnam

73'Rosario

Re: SIMAC

doh@...
 

Hello David,

 

How nice that we actually has been capable of getting to Scotland on 2187,5. Normally for the time being we hear nothing on MF freqs!

Thanks for your report :-)

 

Best regards

Dorte

REU DSC Log IO76jq NW Scotland

Jay Law
 

Hi All

Please see below my log for the week just gone...

Only thing of note was UNID 000016100 on 4MHz (received before on 8MHz).

Still no DX for me on 2MHz...

Listening Report for Jason Law
Covering 20191001 to 20191008
Listening Location: Home QTH - North Ballachulish, Scotland, IO76jq
All entries sorted by frequency in Ascending order
 
Equipment
Receiver 1: Airspy HF+
Antenna 1: Wellbrook ALA100LN 80eg/260deg
Software: HDSDR / YaDD v1.7.1
Receiver 2: Airspy HF+ Discovery
Antenna 2: PA0RDT Mini Whip
Software: HDSDR / YaDD v1.7.1
Receiver 3: Airspy / Spyverter
Antenna 3: PA0RDT eco Mini Whip
Software: SDR# / YaDD v1.7.1
 
20191001 1726  2187.5 002191000 Lyngby Radio, DNK, 834 Km
20191001 1750  2187.5 002111240 Bremen Radio, DEU, 928 Km
20191001 1752  2187.5 002653000 Goteborg Radio, SWE, 1036 Km
20191001 1803  2187.5 002241024 Valencia Radio, ESP, 1999 Km
20191001 1811  2187.5 002570700 Bodoe Radio, NOR, 1546 Km
20191001 1848  2187.5 002241022 Coruna Radio, ESP, 1457 Km
20191001 1903  2187.5 002241026 Las Palmas Radio, CNR, 3234 Km
20191001 1922  2187.5 002570000 Public Correspondence, NOR, -- Km
20191001 2051  2187.5 002275200 CROSS Jobourg, FRA, 810 Km
20191001 2124  2187.5 002320024 Stornoway Coastguard, SCT, 207 Km
20191001 2126  2187.5 002570300 Rogaland Radio, NOR, 677 Km
20191001 2130  2187.5 002442000 Netherlands CG Radio, HOL, 796 Km
20191001 2133  2187.5 002320010 Dover Coastguard, ENG, -- Km
20191001 2319  2187.5 002371000 Olympia Radio, GRC, 2977 Km
20191001 2321  2187.5 002734411 Novorossiysk Radio, RUS, 3244 Km
20191001 2323  2187.5 002734487 Taganrog Radio, RUS, 3108 Km
20191002 0014  2187.5 002630100 Lisboa Radio, POR, 2027 Km
20191002 0020  2187.5 002320004 Aberdeen Coastguard, SCT, 196 Km
20191002 0021  2187.5 002320007 Humber Coastguard, ENG, 294 Km
20191002 0103  2187.5 002570500 Floroe Radio, NOR, 795 Km
20191002 0108  2187.5 002050480 Ostende Radio, BEL, 809 Km
20191002 0118  2187.5 002275100 CROSS Gris Nez, FRA, 786 Km
20191002 0133  2187.5 002610210 Witowo Radio, POL, 1381 Km
20191002 0134  2187.5 002470002 Palermo Radio, SCY, 2461 Km
20191002 0345  2187.5 003313000 Aasiaat Radio, GRL, 2703 Km
20191002 0359  2187.5 002500200 Valentia Radio, IRL, 627 Km
20191002 0400  2187.5 002320001 Shetland Coastguard, SHE, 481 Km
20191002 0427  2187.5 002470124 Crotone Radio, ITA, 2550 Km
20191002 0430  2187.5 002320017 Milford Haven Coastguard, WLS, 756 Km
20191002 0501  2187.5 002275300 CROSS Corsen, FRA, 916 Km
20191002 0851  2187.5 002320021 Belfast Coastguard, NIR, 101 Km
20191002 1616  2187.5 002320014 Falmouth Coastguard, ENG, 756 Km
20191002 2103  2187.5 002711000 Istanbul Radio, TUR, 2995 Km
20191002 2201  2187.5 002570800 Vardo Radio, NOR, 2296 Km
20191002 2204  2187.5 004280001 Haifa Radio, ISR, 4045 Km
20191002 2234  2187.5 002301000 Mariehamn Radio, FIN, 1504 Km
20191002 2258  2187.5 002510100 Reykjavik Radio, ISL, 1224 Km
20191002 2309  2187.5 002320011 Solent Coastguard, ENG, -- Km
20191003 0001  2187.5 002311000 Torshavn Radio, FRO, 598 Km
20191003 0026  2187.5 002734446 Taman Radio, RUS, 3165 Km
20191003 0501  2187.5 002275400 CROSS La Garde, FRA, 1726 Km
20191003 0824  2187.5 002320019 Liverpool Coastguard, GBR, -- Km
20191004 0603  2187.5 002275000 CROSS Etel, FRA, 1016 Km
20191004 1124  2187.5 002320018 Holyhead Coastguard, WLS, 379 Km
20191004 1815  2187.5 002470119 Ancona Radio, ITA, 1960 Km
20191004 1858  2187.5 002240993 Finisterre MRCC, ESP, 1581 Km
20191004 2016  2187.5 002715000 Izmir Radio, TUR, 3093 Km
20191004 2240  2187.5 002652000 Stockholm Radio, SWE, 1214 Km
20191005 0109  2187.5 002734414 Arkhangelsk Radio, RUS, 2583 Km
20191005 0130  2187.5 002470120 Augusta Radio, SCY, 2638 Km
20191005 0325  2187.5 002570600 Orlandet Radio, NOR, 1123 Km
20191005 2343  2187.5 002275420 Aspretto, COR, 1923 Km
20191006 1202  2187.5 002320009 Thames Coastguard, ENG, 681 Km
20191006 2158  2187.5 002770330 Klaipeda Rescue Centre, LTU, 1621 Km
20191006 2223  2187.5 002733700 Saint Petersburg Radio, RUS, 2013 Km
20191007 0228  2187.5 002320008 Yarmouth Coastguard, ENG, 573 Km
20191008 1818  2187.5 002713000 Antalya Radio, TUR, 3447 Km
 
20191001 1621  4207.5 002371000 Olympia Radio, GRC, 2977 Km
20191001 1730  4207.5 002711000 Istanbul Radio, TUR, 2995 Km
20191002 1653  4207.5 002070810 Varna Radio, BUL, 2768 Km
20191002 1759  4207.5 002241022 Coruna Radio, ESP, 1457 Km
20191002 1800  4207.5 002733700 Saint Petersburg Radio, RUS, 2013 Km
20191003 0717  4207.5 003669997 COMMSTA Miami, USA, 6769 Km
20191003 1638  4207.5 004122100 Shanghai Radio, CHN, 9053 Km
20191003 1710  4207.5 005030001 Charleville / Wiluna Radio, AUS, 14600 Km
20191004 0742  4207.5 003669995 COMMSTA Portsmouth, USA, 5553 Km
20191007 0750  4207.5 003669991 COMMSTA Boston, USA, 4826 Km
20191008 1644  4207.5 004162019 Chilung Keelung Radio, TWN, 9659 Km
20191008 1803  4207.5 000016100 ,  UNID, -- Km
 
20191002 1701  6312.0 005030001 Charleville / Wiluna Radio, AUS, 14600 Km
20191002 1809  6312.0 002371000 Olympia Radio, GRC, 2977 Km
20191003 1452  6312.0 002711000 Istanbul Radio, TUR, 2995 Km
20191003 1542  6312.0 005743030 Ho Chi Minh Ville Radio, VTN, 10365 Km
20191003 1601  6312.0 004122100 Shanghai Radio, CHN, 9053 Km
20191003 1730  6312.0 005741040 Hai Phong Radio, VTN, 9306 Km
20191004 0940  6312.0 003669995 COMMSTA Portsmouth, USA, 5553 Km
20191004 1651  6312.0 005671000 Bangkok Radio, THA, 9712 Km
20191008 1006  6312.0 003669991 COMMSTA Boston, USA, 4826 Km
20191008 1506  6312.0 002070810 Varna Radio, BUL, 2768 Km
 
20191002 1108  8414.5 002241022 Coruna Radio, ESP, 1457 Km
20191002 1109  8414.5 002371000 Olympia Radio, GRC, 2977 Km
20191002 1247  8414.5 002070810 Varna Radio, BUL, 2768 Km
20191002 1541  8414.5 003669991 COMMSTA Boston, USA, 4826 Km
20191002 1629  8414.5 005671000 Bangkok Radio, THA, 9712 Km
20191005 1558  8414.5 004122100 Shanghai Radio, CHN, 9053 Km
20191005 1627  8414.5 005742030 Da Nang Radio, VTN, 9880 Km
20191005 1629  8414.5 005741040 Hai Phong Radio, VTN, 9306 Km
20191005 1636  8414.5 005743030 Ho Chi Minh Ville Radio, VTN, 10365 Km
20191005 1810  8414.5 006010001 Cape Town Radio, AFS, 10311 Km
20191007 1738  8414.5 005030001 Charleville / Wiluna Radio, AUS, 14600 Km
 
20191001 1809 12577.0 003669991 COMMSTA Boston, USA, 4826 Km
20191002 1225 12577.0 006221111 Alexandria Radio, EGY, 3917 Km
20191002 1337 12577.0 004231000 Baku Radio, AZE, 4351 Km
20191005 0733 12577.0 002241022 Coruna Radio, ESP, 1457 Km
20191005 0733 12577.0 005030001 Charleville / Wiluna Radio, AUS, 14600 Km
20191005 1554 12577.0 007100003 Manaus Radio, BRA, 8267 Km
20191006 0941 12577.0 002711000 Istanbul Radio, TUR, 2995 Km
20191006 1522 12577.0 003160023 Iqaluit Radio, CAN, 3436 Km
20191006 1648 12577.0 005743030 Ho Chi Minh Ville Radio, VTN, 10365 Km
20191006 1800 12577.0 003669995 COMMSTA Portsmouth, USA, 5553 Km
20191006 1814 12577.0 003669997 COMMSTA Miami, USA, 6769 Km
 
20191006 1235 16804.5 002371000 Olympia Radio, GRC, 2977 Km
 
TIME: 2019-10-08 18:03:26 FREQ: 4207.5 DIST: -- Km
SYMB: 120 120 000 023 071 000 000 108 000 000 016 010 000 118 126 126 126 126 126 126 126 117 035 117 082 
 FMT: SEL
 CAT: SAF
  TO: COAST,002371000,GRC,Olympia Radio
FROM: COAST,000016100, UNID
 TC1: TEST
 TC2: NOINF
FREQ: --
 POS: --
 EOS: REQ
cECC: 35 OK
 
RAW FEC: 125 111 125 110 ~~~ 109 ~~~ 108 ~~~ 108 125 107 125 ~~~ ~~~ 105 120 104 000 120 023 120 ~~~ 000 
000 023 000 071 108 000 000 000 000 108 016 000 010 ~~~ 000 016 118 010 126 000 ~~~ 118 126 126 126 126 
126 126 126 ~~~ 126 126 117 126 035 126 117 117 ~~~ ~~~ 066 ~~~ ~~~ 082 002 ~~~ ~~~ 008 ~~~ ~~~ ~~~ ~~~
 ~~~ ~~~ 
--
Best Regards & Good DX

Jay

Logs 8-10-19 from Cork

Banda Coil
 

20191007 0540 12577.0 006221111 Alexandria Radio, EGY, 3857 Km
20191007 0828 12577.0 002711000 Istanbul Radio, TUR, 3049 Km
20191007 1459 12577.0 003669991 COMMSTA Boston, USA, 4725 Km
20191007 1753 12577.0 003669995 COMMSTA Portsmouth, USA, 5441 Km
20191008 1118 12577.0 004122100 Shanghai Radio, CHN, 9576 Km
20191008 1745 12577.0 319070500 Nordic Skier,ZGEB8,Tanker, Near Namibia, 8299 Km
20191008 1738 12577.0 477017600 Maersk Labrea,VRLI9,Cargo, N.East Brasil, 7873 Km
20191008 1630 12577.0 370122000 Golden Yosa,3ERO8,Tanker, Singapore,11391 Km
20191008 1443 12577.0 311025800 Sunset,C6XY4, Guinea Coast 4614 Km

73's
Bill

REU DSC logs

peter
 

Hi all,

Recent DSC logs.

Session Report for Peter Conway, G3UFI
Listening Location: Hastings UK, JO00gv (50°52'54"N   000°34'40"E)
Report Created On Oct 08, 2019 at 16:41 UTC
Receiver(s): WiNRADiO 313i/R1000/RSP1A/Spyverter
Antenna(s): ALA100M/ALA1530 Loops/Dipoles/Discone
Software: Multipsk 4.33 + other software
Report Sorted by Freq in Ascending order, Frequency Range 100.00 - 156525.00 kHz
--------------------------------------------------------------------------------------------------
YYYY-MM-DD UTC    kHz     Call       km    New Location
--------------------------------------------------------------------------------------------------
2019-10-07 23:57  2177    002241024  1350      Valencia Radio, ESP
2019-10-07 05:56  2177    002050480  159       Oostende Radio, BEL
2019-10-07 22:38  2187.5  002470120  1907      Augusta Radio, ITA
2019-10-07 05:05  2187.5  002470119  1263      Ancona Radio, ITA
2019-10-07 20:14  2187.5  002470125  952       Genova Radio, ITA
2019-10-07 02:45  2187.5  002734419  3458      Astrakhan Radio, RSE
2019-10-07 01:04  2187.5  002733700  2042      Saint Petersburg Radio, RUS
2019-10-07 02:13  2187.5  002510100  1967      Reykjavik Radio, ISL
2019-10-07 01:06  2187.5  002711000  2425      Istanbul Radio, TUR
2019-10-07 03:25  2187.5  002652000  1476      Stockholm Radio, SWE
2019-10-07 00:40  2187.5  002442000  368       Den Helder CG R, HOL
2019-10-07 00:31  2187.5  002191000  904       Lyngby Radio, DNK
2019-10-07 05:07  2187.5  002050480  159       Ostende Radio, BEL
2019-10-07 00:14  2187.5  002320004  716       Aberdeen Radio, SCT
2019-10-07 00:49  2187.5  002320014  406       Falmouth Radio, ENG
2019-10-07 01:06  2187.5  002320017  409       Milford Haven Radio, WLS
2019-10-07 17:01  2187.5  002275300  474       CROSS Corsen, FRA
2019-10-07 00:03  2187.5  002275000  450       CROSS Etel, FRA
2019-10-07 03:52  2187.5  002240994  1723      Tarifa Radio, ESP
2019-10-07 00:11  2187.5  002241022  1079      Coruna Radio, ESP
2019-10-07 02:28  2187.5  002320008            UK Coastguard, ENG
2019-10-07 21:24  2187.5  002320021  594       Belfast R, NIR
2019-10-07 01:11  2187.5  002320024  951       Stornoway Radio, SCT
2019-10-07 02:19  2187.5  002734487  2796      Taganrog Radio, RUS
2019-10-07 21:03  4207.5  002070810  2224      Varna Radio, BUL
2019-10-07 00:06  4207.5  002711000  2223      Istanbul Radio, TUR
2019-10-07 01:03  4207.5  002733700  2098      Saint Petersburg Radio, RUS
2019-10-07 03:37  4207.5  003669991  5346      Boston Radio, MA, USA
2019-10-07 04:42  4207.5  003669995  6057      Portsmouth Radio, VA, USA
2019-10-07 00:19  4207.5  003669997  7214      Miami Radio, FL, USA
2019-10-07 12:06  6312    219015591  924       XPE3307 Pandrup Test, DNK
2019-10-07 21:42  6312    003669995  6057      Portsmouth Radio, VA, USA
2019-10-07 06:57  6312    003669997  7214      Miami Radio, FL, USA
2019-10-07 10:22  8414.5  002070810  2224      Varna Radio, BUL
2019-10-07 05:58  8414.5  002091000  3149      Cyprus Radio, CYP
2019-10-07 10:03  8414.5  002371000  2209      Olympia Radio, GRC
2019-10-07 10:18  8414.5  002711000  2223      Istanbul Radio, TUR
2019-10-07 06:43  8414.5  003669991  5346      Boston Radio, MA, USA
2019-10-07 07:00  8414.5  003669997  7214      Miami Radio, FL, USA
2019-10-07 16:16  8414.5  004122100  9224      Shanghai Radio, CHN
2019-10-07 15:51  8414.5  005030001  14978     Charleville/Wilun R, AT, AUS
2019-10-07 00:06  8414.5  005671000  9529      Bangkok Radio, THA
2019-10-07 15:57  8414.5  005741040  9290      Hai Phong Radio, VTN
2019-10-07 23:02  8414.5  005743030  10241     Ho Chi Minh Ville Radio, VTN
2019-10-07 01:21  8414.5  006010001  9567      Cape Town Radio, AFS
2019-10-07 10:07  8414.5  002241022  1079      Coruna Radio, ESP
2019-10-07 08:56  12577   219015591  919       XPE3307 Pandrup Test, DNK
2019-10-07 06:03  12577   002711000  2223      Istanbul Radio, TUR
2019-10-07 14:56  12577   003669991  5346      Boston Radio, MA, USA
2019-10-07 18:06  12577   003669997  7214      Miami Radio, FL, USA
2019-10-07 14:26  12577   006221111  3253      Alexandria Radio, EGY
2019-10-07 18:43  16804.5 007100003  8278      Manaus Radio, BRA
2019-10-07 08:05  16804.5 002711000  2223      Istanbul Radio, TUR
2019-10-07 14:59  16804.5 003669991  5346      Boston Radio, MA, USA
2019-10-07 04:02  156525  002320007  362       Humber Radio, ENG
2019-10-07 10:25  156525  002320010  59        Dover Radio, ENG
2019-10-07 06:00  156525  002275100  70        CROSS Gris Nez, FRA
2019-10-07 17:19  156525  002320011  45        Solent Radio, ENG
--------------------------------------------------------------------------------------------------
Output Generated By WWSU 6.4 (2013, Alex Wiecek - VE3GOP, http://www.ve3gop.com)
58 stations logged during this Session (0 new)
Total number of DSC stations logged   -   740

73,

Peter   g3ufi

log 07/10

Vincent LECLER
 

Hi All

20191007 0157 2187.5 002050480 Ostende Radio, Belgium
20191007 1803 2187.5 002070810 Varna Radio, Bulgaria
20191007 0605 2187.5 002111240 Bremen Radio, Germany
20191007 0049 2187.5 002191000 Lyngby Radio, Denmark
20191007 0631 2187.5 002240994 Tarifa MRCC, Spain
20191007 0003 2187.5 002241022 Coruna Radio, Spain
20191007 0009 2187.5 002241024 Valencia Radio, Spain
20191007 0018 2187.5 002241026 Las Palmas Radio, Spain
20191007 0003 2187.5 002275000 CROSS Etel, France
20191007 1155 2187.5 002275100 CROSS Gris Nez, France
20191007 0054 2187.5 002275200 CROSS Jobourg, France
20191007 0501 2187.5 002275300 CROSS Corsen, France
20191007 0003 2187.5 002275400 CROSS La Garde, France
20191007 0705 2187.5 002320001 Shetland Coastguard, United Kingdom
20191007 1202 2187.5 002320004 Aberdeen Coastguard, United Kingdom
20191007 0057 2187.5 002320007 Humber Coastguard, United Kingdom
20191007 0228 2187.5 002320008 Yarmouth Coastguard, United Kingdom
20191007 0220 2187.5 002320010 Dover Coastguard, United Kingdom
20191007 0117 2187.5 002320014 Falmouth Coastguard, United Kingdom
20191007 0604 2187.5 002320018 Holyhead Coastguard, United Kingdom
20191007 0006 2187.5 002371000 Olympia Radio, Greece
20191007 0040 2187.5 002442000 Netherlands CG Radio, Netherlands
20191007 0503 2187.5 002470002 Palermo Radio, Italy
20191007 1809 2187.5 002470123 Civitavecchia Radio, Italy
20191007 1713 2187.5 002470124 Crotone Radio, Italy
20191007 0759 2187.5 002470125 Genova Radio, Italy
20191007 0505 2187.5 002470133 Porto Torres Radio, Italy
20191007 0113 2187.5 002570000 Public Correspondence, Norway
20191007 0422 2187.5 002570700 Bodoe Radio, Norway
20191007 0133 2187.5 002610210 Witowo Radio, Poland
20191007 0557 2187.5 002630100 MRCC Lisboa, Portugal
20191007 1833 2187.5 002652000 Stockholm Radio, Sweden
20191007 0126 2187.5 002711000 Istanbul Radio, Turkey
20191007 0103 2187.5 002733700 Saint Petersburg Radio, Russia
20191007 0005 2187.5 002734411 Novorossiysk Radio, Russia
20191007 0135 2187.5 002734414 Arkhangelsk Radio, Russia
20191007 0310 2187.5 002734419 Astrakhan Radio, Russia
20191007 0017 2187.5 002734446 Taman Radio, Russia
20191007 0001 2187.5 002734487 Taganrog Radio, Russia

4207.5 :
20191007 2103 4207.5 002070810 Varna Radio, Bulgaria
20191007 0034 4207.5 002091000 Cyprus Radio, Cyprus
20191007 0027 4207.5 002241022 Coruna Radio, Spain
20191007 0026 4207.5 002371000 Olympia Radio, Greece
20191007 0201 4207.5 002711000 Istanbul Radio, Turkey
20191007 0615 4207.5 002733700 Saint Petersburg Radio, Russia
20191007 0638 4207.5 003669991 Boston, USA
20191007 0248 4207.5 003669995 Chesapeake, USA
20191007 0656 4207.5 003669997 Miami, USA
20191007 0718 4207.5 003669998 New Orleans, USA
20191007 2143 4207.5 005030001 RCC Australia, Australia
-- 
73's
Vincent Lecler F5OIH
JN06CI
REF43551
EPC:23954/30MDG:7083/DMC:7677/FeldHell:5248/BDM:4704/ERC:2359
QSL via Buro,EQSL and LOTW

REU - DSC Logs from Ariano Irpino, South Italy - logs of 2019 10 07

Rosario
 

Report from      :Rosario Palermo IZ8294SWL

QTH              :Ariano Irpino, AV, Italy

Locators         :41°08'01.8"N 15°04'54.3"E

Receiever(s)    :SDRplay RSP1A / JRC NDR 525 /R1000

Antenna(s)       :genuine PA0RDT MiniWhip at 4m / dipole 30 mt / End Fed 120 m



Hi all,
DSC logs of 2019 10 07

YYYYMMDD HHMM  kHz   MMSI       Station ID, Country

2187.5 : 20191007 0507 2187.5 002050480 Ostende Radio, Belgium 20191007 1900 2187.5 002070810 Varna Radio, Bulgaria 20191007 0126 2187.5 002091000 Cyprus Radio, Cyprus 20191007 0005 2187.5 002111240 Bremen Radio, Germany 20191007 0001 2187.5 002191000 Lyngby Radio, Denmark 20191007 0003 2187.5 002241022 Coruna Radio, Spain 20191007 0009 2187.5 002241024 Valencia Radio, Spain 20191007 0018 2187.5 002241026 Las Palmas Radio, Spain 20191007 0411 2187.5 002275100 CROSS Gris Nez, France 20191007 0054 2187.5 002275200 CROSS Jobourg, France 20191007 0501 2187.5 002275300 CROSS Corsen, France 20191007 0003 2187.5 002275400 CROSS La Garde, France 20191007 0014 2187.5 002320004 Aberdeen Coastguard, United Kingdom 20191007 0057 2187.5 002320007 Humber Coastguard, United Kingdom 20191007 0228 2187.5 002320008 Yarmouth Coastguard, United Kingdom 20191007 0049 2187.5 002320014 Falmouth Coastguard, United Kingdom 20191007 0149 2187.5 002320024 Stornoway Coastguard, United Kingdom 20191007 0002 2187.5 002371000 Olympia Radio, Greece 20191007 0003 2187.5 002442000 Netherlands CG Radio, Netherlands 20191007 0008 2187.5 002470002 Palermo Radio, Italy 20191007 0505 2187.5 002470119 Ancona Radio, Italy 20191007 0444 2187.5 002470120 Augusta Radio, Italy 20191007 0008 2187.5 002470124 Crotone Radio, Italy 20191007 2014 2187.5 002470125 Genova Radio, Italy 20191007 0507 2187.5 002470128 Mazara del Vallo Radio, Italy 20191007 0113 2187.5 002570000 Public Correspondence, Norway 20191007 0051 2187.5 002570300 Rogaland Radio, Norway 20191007 0422 2187.5 002570700 Bodoe Radio, Norway 20191007 1825 2187.5 002630100 MRCC Lisboa, Portugal 20191007 2151 2187.5 002715000 Izmir Radio, Turkey 20191007 0104 2187.5 002733700 Saint Petersburg Radio, Russia 20191007 0005 2187.5 002734411 Novorossiysk Radio, Russia 20191007 0135 2187.5 002734414 Arkhangelsk Radio, Russia 20191007 0034 2187.5 002734419 Astrakhan Radio, Russia 20191007 2201 2187.5 002734446 Taman Radio, Russia 20191007 0219 2187.5 002734487 Taganrog Radio, Russia 20191007 0304 2187.5 003313000 Aasiaat Radio, Greenland 20191007 2137 2187.5 006221113 Port Said Radio, Egypt 4207.5 : 20191007 0732 4207.5 002241022 Coruna Radio, Spain 20191007 0549 4207.5 002371000 Olympia Radio, Greece 20191007 1344 4207.5 002711000 Istanbul Radio, Turkey 20191007 0638 4207.5 003669991 Boston, USA 20191007 0543 4207.5 003669995 Chesapeake, USA 20191007 0644 4207.5 003669997 Miami, USA 6312.0 : 20191007 0803 6312.0 002371000 Olympia Radio, Greece 20191007 0905 6312.0 002711000 Istanbul Radio, Turkey 8414.5 : 20191007 1635 8414.5 002070810 Varna Radio, Bulgaria 20191007 1656 8414.5 002241022 Coruna Radio, Spain 20191007 1651 8414.5 002371000 Olympia Radio, Greece 20191007 1558 8414.5 004122100 Shanghai Radio, China 20191007 1611 8414.5 005671000 Bangkok Radio, Thailand 20191007 1557 8414.5 005741040 Hai Phong Radio, Vietnam 12577.0 : 20191007 1103 12577.0 002241022 Coruna Radio, Spain 20191007 0940 12577.0 002711000 Istanbul Radio, Turkey

73'Rosario

REU DSC logs

peter
 

Hi all,

Recent DSC logs.

Session Report for Peter Conway, G3UFI
Listening Location: Hastings UK, JO00gv (50°52'54"N   000°34'40"E)
Report Created On Oct 07, 2019 at 19:23 UTC
Receiver(s): WiNRADiO 313i/R1000/RSP1A/Spyverter
Antenna(s): ALA100M/ALA1530 Loops/Dipoles/Discone
Software: Multipsk 4.33 + other software
Report Sorted by Freq in Ascending order, Frequency Range 100.00 - 156525.00 kHz
--------------------------------------------------------------------------------------------------
YYYY-MM-DD UTC    kHz     Call       km    New Location
--------------------------------------------------------------------------------------------------
2019-10-06 00:44  2187.5  002470123  1298      Civitavecchia Radio, ITA
2019-10-06 22:38  2187.5  002470120  1907      Augusta Radio, ITA
2019-10-06 21:43  2187.5  002734414  2748      Arkhangelsk Radio, RUS
2019-10-06 23:18  2187.5  002733700  2042      Saint Petersburg Radio, RUS
2019-10-06 02:03  2187.5  002510100  1967      Reykjavik Radio, ISL
2019-10-06 01:01  2187.5  002711000  2425      Istanbul Radio, TUR
2019-10-06 03:07  2187.5  003313000  3417      Aasiaat Radio, GRL
2019-10-06 02:17  2187.5  002311000  1317      Torshavn Radio, FRO
2019-10-06 11:17  2187.5  002570700  1974      Bodoe Radio, NOR
2019-10-06 04:41  2187.5  002570500  1222      Floroe Radio, NOR
2019-10-06 00:28  2187.5  002470002  1738      Palermo Radio, ITA
2019-10-06 00:00  2187.5  002275300  474       CROSS Corsen, FRA
2019-10-06 00:10  2187.5  002275200  220       CROSS Jobourg, FRA
2019-10-06 15:17  2187.5  002500100  726       Malin Head Radio, IRL
2019-10-06 19:56  2187.5  002240993  1163      Finisterre Radio, ESP
2019-10-06 05:21  2187.5  002630100  1562      Lisboa Radio, POR
2019-10-06 03:40  2187.5  002040100  2527      Ponta Delgada MRCC, AZR
2019-10-06 00:02  2187.5  002241026  2909      Las Palmas Radio, CNR
2019-10-06 00:18  2187.5  002301000  1576      Mariehamn Radio, FIN
2019-10-06 00:07  2187.5  002570000            Public Correspondance, NOR
2019-10-06 00:46  2187.5  002734446  2736      Taman Radio, RUS
2019-10-06 22:35  2187.5  002734487  2796      Taganrog Radio, RUS
2019-10-06 21:59  2187.5  002770330  1469      Klaipeda RCC, LTU
2019-10-06 21:20  2187.5  002761000  1602      Undva, EST
2019-10-06 00:48  2187.5  002111240  613       Bremen Radio, DEU
2019-10-06 00:20  4207.5  002070810  2224      Varna Radio, BUL
2019-10-06 00:16  4207.5  002371000  2209      Olympia Radio, GRC
2019-10-06 02:52  4207.5  003669991  5346      Boston Radio, MA, USA
2019-10-06 22:57  4207.5  003669995  6057      Portsmouth Radio, VA, USA
2019-10-06 02:55  4207.5  003669997  7214      Miami Radio, FL, USA
2019-10-06 06:42  6312    219015591  924       XPE3307 Pandrup Test, DNK
2019-10-06 02:53  6312    003669991  5346      Boston Radio, MA, USA
2019-10-06 02:55  6312    003669997  7214      Miami Radio, FL, USA
2019-10-06 11:28  8414.5  002070810  2224      Varna Radio, BUL
2019-10-06 02:34  8414.5  007100003  8281      Manaus Radio, BRA
2019-10-06 14:03  8414.5  002091000  3149      Cyprus Radio, CYP
2019-10-06 10:02  8414.5  002371000  2209      Olympia Radio, GRC
2019-10-06 10:26  8414.5  002640570  2223      Constanta Radio, ROU
2019-10-06 06:41  8414.5  002750100  1670      Riga rescue Radio, LVA
2019-10-06 19:22  8414.5  003160023  4150      Iqaluit Radio, NU, CAN
2019-10-06 10:11  8414.5  003669991  5346      Boston Radio, MA, USA
2019-10-06 02:56  8414.5  003669997  7214      Miami Radio, FL, USA
2019-10-06 15:40  8414.5  004122100  9224      Shanghai Radio, CHN
2019-10-06 15:37  8414.5  005030001  14978     Charleville/Wilun R, AT, AUS
2019-10-06 00:17  8414.5  005671000  9529      Bangkok Radio, THA
2019-10-06 22:59  8414.5  005741040  9290      Hai Phong Radio, VTN
2019-10-06 15:59  8414.5  005743030  10241     Ho Chi Minh Ville Radio, VTN
2019-10-06 01:09  8414.5  006010001  9567      Cape Town Radio, AFS
2019-10-06 10:06  8414.5  002241022  1079      Coruna Radio, ESP
2019-10-06 18:00  12577   003669995  6057      Portsmouth Radio, VA, USA
2019-10-06 16:49  12577   005743030  10241     Ho Chi Minh Ville Radio, VTN
2019-10-06 16:05  16804.5 007100003  8278      Manaus Radio, BRA
2019-10-06 07:22  16804.5 002371000  2209      Olympia Radio, GRC
2019-10-06 07:23  16804.5 002711000  2223      Istanbul Radio, TUR
2019-10-06 07:57  16804.5 004122100  9224      Shanghai Radio, CHN
2019-10-06 17:27  16804.5 007100001  9289      Rio de Janeiro Radio, BRA
--------------------------------------------------------------------------------------------------
Output Generated By WWSU 6.4 (2013, Alex Wiecek - VE3GOP, http://www.ve3gop.com)
56 stations logged during this Session (0 new)
Total number of DSC stations logged   -   740

73,

Peter   g3ufi

REU - DSC Logs from Ariano Irpino, South Italy - last week log.

Rosario
 

Report from        :Rosario Palermo iz8294swl

QTH               :Ariano Irpino, AV, Italy

Locators           :41°08'01.8"N 15°04'54.3"E

Receiever(s)     :SDRplay RSP1A / JRC NDR 525 /R1000

Antenna(s)        :genuine PA0RDT MiniWhip at 4m / dipole 30 mt/End Fed 120 mt

Hallo all,
last week DSC log.

YYYYMMDD HHMM kHz MMSI Station ID, Country ==========================================================
2177.0 : 20190930 0324 2177.0 002241026 Las Palmas Radio, Spain 2187.5 : 20191001 0009 2187.5 002050480 Ostende Radio, Belgium 20190930 0001 2187.5 002070810 Varna Radio, Bulgaria 20191003 2250 2187.5 002091000 Cyprus Radio, Cyprus 20191001 0155 2187.5 002111240 Bremen Radio, Germany 20191005 2350 2187.5 002150100 Malta Radio, Malta 20190930 0016 2187.5 002191000 Lyngby Radio, Denmark 20191002 2333 2187.5 002240993 Finisterre MRCC, Spain 20190930 0029 2187.5 002240994 Tarifa MRCC, Spain 20191004 0018 2187.5 002241002 Almeria Radio, Spain 20190930 0001 2187.5 002241022 Coruna Radio, Spain 20190930 0034 2187.5 002241024 Valencia Radio, Spain 20190930 0145 2187.5 002241026 Las Palmas Radio, Spain 20191005 0131 2187.5 002275000 CROSS Etel, France 20190930 0030 2187.5 002275100 CROSS Gris Nez, France 20191001 2052 2187.5 002275200 CROSS Jobourg, France 20191002 0501 2187.5 002275300 CROSS Corsen, France 20190930 0502 2187.5 002275400 CROSS La Garde, France 20190930 2116 2187.5 002301000 Mariehamn Radio, Finland 20191006 0326 2187.5 002302000 Helsinki Radio, Finland 20191006 0217 2187.5 002311000 Torshavn Radio, Faroe Islands 20190930 1945 2187.5 002320001 Shetland Coastguard, United Kingdom 20190930 0359 2187.5 002320004 Aberdeen Coastguard, United Kingdom 20190930 2017 2187.5 002320007 Humber Coastguard, United Kingdom 20191002 0211 2187.5 002320010 Dover Coastguard, United Kingdom 20191005 0118 2187.5 002320011 Solent Coastguard, United Kingdom 20190930 1943 2187.5 002320014 Falmouth Coastguard, United Kingdom 20191006 2317 2187.5 002320017 Milford Haven Coastguard, United Kingdom 20190930 2022 2187.5 002320018 Holyhead Coastguard, United Kingdom 20191004 2259 2187.5 002320019 Liverpool Coastguard, United Kingdom 20190930 1904 2187.5 002320021 Belfast Coastguard, United Kingdom 20190930 0258 2187.5 002320024 Stornoway Coastguard, United Kingdom 20190930 0036 2187.5 002371000 Olympia Radio, Greece 20190930 0135 2187.5 002442000 Netherlands CG Radio, Netherlands 20190930 0059 2187.5 002470002 Palermo Radio, Italy 20191002 2103 2187.5 002470119 Ancona Radio, Italy 20190930 0019 2187.5 002470120 Augusta Radio, Italy 20191004 2315 2187.5 002470122 Cagliari Radio, Italy 20191004 0504 2187.5 002470123 Civitavecchia Radio, Italy 20190930 0513 2187.5 002470124 Crotone Radio, Italy 20191001 0606 2187.5 002470125 Genova Radio, Italy 20190930 0248 2187.5 002470128 Mazara del Vallo Radio, Italy 20191004 0507 2187.5 002470133 Porto Torres Radio, Italy 20191002 2103 2187.5 002470135 Trieste Radio, Italy 20190930 2056 2187.5 002500200 Valentia Radio, Ireland 20191005 2004 2187.5 002510100 Reykjavik Radio, Iceland 20190930 2223 2187.5 002570000 Public Correspondence, Norway 20190930 1952 2187.5 002570100 Tjome Radio, Norway 20190930 0142 2187.5 002570300 Rogaland Radio, Norway 20191002 0103 2187.5 002570500 Floroe Radio, Norway 20190930 2102 2187.5 002570700 Bodoe Radio, Norway 20190930 2015 2187.5 002570800 Vardo Radio, Norway 20190930 2100 2187.5 002610210 Witowo Radio, Poland 20190930 0024 2187.5 002630100 MRCC Lisboa, Portugal 20190930 0132 2187.5 002640570 Constanta Radio, Romania 20191006 2036 2187.5 002652000 Stockholm Radio, Sweden 20191001 0304 2187.5 002653000 Goteborg Radio, Sweden 20190930 0058 2187.5 002711000 Istanbul Radio, Turkey 20191001 2200 2187.5 002712000 Samsun Radio, Turkey 20191004 2021 2187.5 002713000 Antalya Radio, Turkey 20191004 2017 2187.5 002715000 Izmir Radio, Turkey 20191006 2223 2187.5 002733700 Saint Petersburg Radio, Russia 20190930 0017 2187.5 002734411 Novorossiysk Radio, Russia 20191006 1834 2187.5 002734414 Arkhangelsk Radio, Russia 20191006 0210 2187.5 002734419 Astrakhan Radio, Russia 20191004 1839 2187.5 002734446 Taman Radio, Russia 20190930 0000 2187.5 002734487 Taganrog Radio, Russia 20191006 0306 2187.5 003313000 Aasiaat Radio, Greenland 20190930 2216 2187.5 004280001 Haifa Radio, Israel 20191005 2000 2187.5 006052110 Alger Radio, Algeria 4207.5 : 20191005 0038 4207.5 002070810 Varna Radio, Bulgaria 20191005 0129 4207.5 002091000 Cyprus Radio, Cyprus 20190930 1102 4207.5 002241022 Coruna Radio, Spain 20190930 1014 4207.5 002371000 Olympia Radio, Greece 20191004 0517 4207.5 002711000 Istanbul Radio, Turkey 20191003 0532 4207.5 003669991 Boston, USA 20191003 0610 4207.5 003669995 Chesapeake, USA 20191003 0538 4207.5 003669997 Miami, USA 6312.0 : 20190930 1434 6312.0 002371000 Olympia Radio, Greece 20190930 0111 6312.0 002711000 Istanbul Radio, Turkey 20191005 1818 6312.0 004122100 Shanghai Radio, China 20191005 1809 6312.0 005030001 RCC Australia, Australia 20190930 1613 6312.0 005671000 Bangkok Radio, Thailand 8414.5 : 20190930 1649 8414.5 002070810 Varna Radio, Bulgaria 20191001 1326 8414.5 002091000 Cyprus Radio, Cyprus 20190930 1442 8414.5 002241022 Coruna Radio, Spain 20190930 1425 8414.5 002371000 Olympia Radio, Greece 20191001 1154 8414.5 002711000 Istanbul Radio, Turkey 20191001 2152 8414.5 003669995 Chesapeake, USA 20191002 0222 8414.5 003669997 Miami, USA 20190930 1618 8414.5 004122100 Shanghai Radio, China 20191001 1903 8414.5 005030001 RCC Australia, Australia 20190930 1836 8414.5 005671000 Bangkok Radio, Thailand 20191003 1633 8414.5 005741040 Hai Phong Radio, Vietnam 20191004 1732 8414.5 005743030 Ho Chi Minh Ville Radio, Vietnam 20191001 1451 8414.5 006221111 Alexandria Radio, Egypt 12577.0 : 20191004 1025 12577.0 002241022 Coruna Radio, Spain 20191004 1154 12577.0 002711000 Istanbul Radio, Turkey 16804.5 : 20191002 0911 16804.5 002371000 Olympia Radio, Greece

73'Rosario